sensor_id;sensor_type;location;lat;lon;timestamp;P1;durP1;ratioP1;P2;durP2;ratioP2
65234;SDS011;51820;48.374;10.930;2022-12-18T00:01:29;44.23;;;16.87;;
65234;SDS011;51820;48.374;10.930;2022-12-18T00:03:59;47.10;;;16.38;;
65234;SDS011;51820;48.374;10.930;2022-12-18T00:06:29;42.05;;;15.85;;
65234;SDS011;51820;48.374;10.930;2022-12-18T00:08:59;58.83;;;23.17;;
65234;SDS011;51820;48.374;10.930;2022-12-18T00:11:28;103.45;;;33.80;;
65234;SDS011;51820;48.374;10.930;2022-12-18T00:13:58;51.17;;;18.07;;
65234;SDS011;51820;48.374;10.930;2022-12-18T00:16:29;43.92;;;16.20;;
65234;SDS011;51820;48.374;10.930;2022-12-18T00:19:06;41.25;;;15.63;;
65234;SDS011;51820;48.374;10.930;2022-12-18T00:21:37;34.80;;;14.40;;
65234;SDS011;51820;48.374;10.930;2022-12-18T00:24:08;41.35;;;14.55;;
65234;SDS011;51820;48.374;10.930;2022-12-18T00:26:37;40.27;;;14.70;;
65234;SDS011;51820;48.374;10.930;2022-12-18T00:29:08;41.13;;;14.35;;
65234;SDS011;51820;48.374;10.930;2022-12-18T00:31:46;39.78;;;13.82;;
65234;SDS011;51820;48.374;10.930;2022-12-18T00:34:15;38.22;;;14.07;;
65234;SDS011;51820;48.374;10.930;2022-12-18T00:36:44;35.38;;;12.75;;
65234;SDS011;51820;48.374;10.930;2022-12-18T00:39:20;36.93;;;13.07;;
65234;SDS011;51820;48.374;10.930;2022-12-18T00:41:49;34.65;;;13.93;;
65234;SDS011;51820;48.374;10.930;2022-12-18T00:44:37;38.33;;;12.70;;
65234;SDS011;51820;48.374;10.930;2022-12-18T00:47:07;39.08;;;12.35;;
65234;SDS011;51820;48.374;10.930;2022-12-18T00:49:35;39.33;;;13.43;;
65234;SDS011;51820;48.374;10.930;2022-12-18T00:52:04;33.77;;;13.90;;
65234;SDS011;51820;48.374;10.930;2022-12-18T00:54:32;29.63;;;11.05;;
65234;SDS011;51820;48.374;10.930;2022-12-18T00:57:01;33.97;;;12.75;;
65234;SDS011;51820;48.374;10.930;2022-12-18T00:59:29;39.53;;;13.98;;
65234;SDS011;51820;48.374;10.930;2022-12-18T01:01:58;44.63;;;15.05;;
65234;SDS011;51820;48.374;10.930;2022-12-18T01:04:28;47.30;;;17.10;;
65234;SDS011;51820;48.374;10.930;2022-12-18T01:06:59;45.00;;;16.98;;
65234;SDS011;51820;48.374;10.930;2022-12-18T01:09:27;49.85;;;17.55;;
65234;SDS011;51820;48.374;10.930;2022-12-18T01:11:56;48.47;;;17.67;;
65234;SDS011;51820;48.374;10.930;2022-12-18T01:14:24;54.35;;;16.58;;
65234;SDS011;51820;48.374;10.930;2022-12-18T01:16:53;53.50;;;17.57;;
65234;SDS011;51820;48.374;10.930;2022-12-18T01:19:21;47.85;;;16.50;;
65234;SDS011;51820;48.374;10.930;2022-12-18T01:21:51;40.42;;;15.23;;
65234;SDS011;51820;48.374;10.930;2022-12-18T01:24:19;37.50;;;13.25;;
65234;SDS011;51820;48.374;10.930;2022-12-18T01:26:48;38.65;;;14.00;;
65234;SDS011;51820;48.374;10.930;2022-12-18T01:29:16;37.70;;;12.37;;
65234;SDS011;51820;48.374;10.930;2022-12-18T01:31:45;38.83;;;12.63;;
65234;SDS011;51820;48.374;10.930;2022-12-18T01:34:14;36.03;;;12.73;;
65234;SDS011;51820;48.374;10.930;2022-12-18T01:36:42;40.92;;;14.18;;
65234;SDS011;51820;48.374;10.930;2022-12-18T01:39:13;38.65;;;14.98;;
65234;SDS011;51820;48.374;10.930;2022-12-18T01:41:42;35.50;;;12.83;;
65234;SDS011;51820;48.374;10.930;2022-12-18T01:47:29;43.50;;;14.80;;
65234;SDS011;51820;48.374;10.930;2022-12-18T01:50:02;40.35;;;14.77;;
65234;SDS011;51820;48.374;10.930;2022-12-18T01:52:35;39.78;;;13.48;;
65234;SDS011;51820;48.374;10.930;2022-12-18T01:55:06;42.80;;;14.17;;
65234;SDS011;51820;48.374;10.930;2022-12-18T01:57:36;36.88;;;13.25;;
65234;SDS011;51820;48.374;10.930;2022-12-18T02:00:07;38.17;;;14.38;;
65234;SDS011;51820;48.374;10.930;2022-12-18T02:02:40;36.53;;;13.88;;
65234;SDS011;51820;48.374;10.930;2022-12-18T02:05:11;39.20;;;13.57;;
65234;SDS011;51820;48.374;10.930;2022-12-18T02:07:44;37.53;;;14.83;;
65234;SDS011;51820;48.374;10.930;2022-12-18T02:10:22;44.10;;;15.45;;
65234;SDS011;51820;48.374;10.930;2022-12-18T02:12:56;47.22;;;14.95;;
65234;SDS011;51820;48.374;10.930;2022-12-18T02:15:32;37.60;;;13.02;;
65234;SDS011;51820;48.374;10.930;2022-12-18T02:18:05;41.30;;;13.45;;
65234;SDS011;51820;48.374;10.930;2022-12-18T02:20:36;34.23;;;13.53;;
65234;SDS011;51820;48.374;10.930;2022-12-18T02:23:13;38.17;;;13.90;;
65234;SDS011;51820;48.374;10.930;2022-12-18T02:26:09;40.95;;;14.82;;
65234;SDS011;51820;48.374;10.930;2022-12-18T02:28:43;34.05;;;14.80;;
65234;SDS011;51820;48.374;10.930;2022-12-18T02:31:15;35.75;;;13.38;;
65234;SDS011;51820;48.374;10.930;2022-12-18T02:33:50;36.50;;;13.27;;
65234;SDS011;51820;48.374;10.930;2022-12-18T02:36:22;32.10;;;13.15;;
65234;SDS011;51820;48.374;10.930;2022-12-18T02:38:54;40.13;;;12.85;;
65234;SDS011;51820;48.374;10.930;2022-12-18T02:41:26;35.63;;;12.27;;
65234;SDS011;51820;48.374;10.930;2022-12-18T02:43:56;45.55;;;14.98;;
65234;SDS011;51820;48.374;10.930;2022-12-18T02:46:28;35.10;;;12.93;;
65234;SDS011;51820;48.374;10.930;2022-12-18T02:49:06;41.22;;;13.63;;
65234;SDS011;51820;48.374;10.930;2022-12-18T02:51:45;39.28;;;13.18;;
65234;SDS011;51820;48.374;10.930;2022-12-18T02:57:13;38.60;;;13.23;;
65234;SDS011;51820;48.374;10.930;2022-12-18T02:59:49;41.03;;;13.40;;
65234;SDS011;51820;48.374;10.930;2022-12-18T03:02:26;34.97;;;12.48;;
65234;SDS011;51820;48.374;10.930;2022-12-18T03:05:03;33.08;;;12.68;;
65234;SDS011;51820;48.374;10.930;2022-12-18T03:07:38;37.28;;;14.15;;
65234;SDS011;51820;48.374;10.930;2022-12-18T03:10:13;34.33;;;12.50;;
65234;SDS011;51820;48.374;10.930;2022-12-18T03:12:49;40.17;;;12.70;;
65234;SDS011;51820;48.374;10.930;2022-12-18T03:15:22;32.80;;;12.48;;
65234;SDS011;51820;48.374;10.930;2022-12-18T03:18:04;32.97;;;12.52;;
65234;SDS011;51820;48.374;10.930;2022-12-18T03:20:36;39.67;;;10.95;;
65234;SDS011;51820;48.374;10.930;2022-12-18T03:23:13;35.33;;;12.45;;
65234;SDS011;51820;48.374;10.930;2022-12-18T03:25:48;39.93;;;11.30;;
65234;SDS011;51820;48.374;10.930;2022-12-18T03:28:23;32.42;;;11.23;;
65234;SDS011;51820;48.374;10.930;2022-12-18T03:30:58;32.88;;;11.55;;
65234;SDS011;51820;48.374;10.930;2022-12-18T03:33:30;31.15;;;10.85;;
65234;SDS011;51820;48.374;10.930;2022-12-18T03:36:04;32.03;;;10.32;;
65234;SDS011;51820;48.374;10.930;2022-12-18T03:38:33;26.33;;;10.50;;
65234;SDS011;51820;48.374;10.930;2022-12-18T03:41:03;33.92;;;11.30;;
65234;SDS011;51820;48.374;10.930;2022-12-18T03:43:59;32.88;;;10.70;;
65234;SDS011;51820;48.374;10.930;2022-12-18T03:46:36;35.63;;;11.20;;
65234;SDS011;51820;48.374;10.930;2022-12-18T03:49:18;29.73;;;10.38;;
65234;SDS011;51820;48.374;10.930;2022-12-18T03:51:57;25.63;;;10.07;;
65234;SDS011;51820;48.374;10.930;2022-12-18T03:54:29;30.27;;;10.52;;
65234;SDS011;51820;48.374;10.930;2022-12-18T03:57:07;29.88;;;10.88;;
65234;SDS011;51820;48.374;10.930;2022-12-18T03:59:42;35.08;;;11.38;;
65234;SDS011;51820;48.374;10.930;2022-12-18T04:02:16;26.70;;;10.50;;
65234;SDS011;51820;48.374;10.930;2022-12-18T04:04:46;27.33;;;11.03;;
65234;SDS011;51820;48.374;10.930;2022-12-18T04:07:18;29.38;;;10.70;;
65234;SDS011;51820;48.374;10.930;2022-12-18T04:09:48;33.17;;;10.60;;
65234;SDS011;51820;48.374;10.930;2022-12-18T04:12:23;29.60;;;10.80;;
65234;SDS011;51820;48.374;10.930;2022-12-18T04:14:53;31.98;;;10.68;;
65234;SDS011;51820;48.374;10.930;2022-12-18T04:17:22;33.10;;;11.27;;
65234;SDS011;51820;48.374;10.930;2022-12-18T04:19:51;36.20;;;11.57;;
65234;SDS011;51820;48.374;10.930;2022-12-18T04:22:21;28.92;;;11.50;;
65234;SDS011;51820;48.374;10.930;2022-12-18T04:24:58;32.47;;;11.60;;
65234;SDS011;51820;48.374;10.930;2022-12-18T04:27:38;32.80;;;10.65;;
65234;SDS011;51820;48.374;10.930;2022-12-18T04:30:09;35.70;;;12.93;;
65234;SDS011;51820;48.374;10.930;2022-12-18T04:32:38;31.90;;;10.50;;
65234;SDS011;51820;48.374;10.930;2022-12-18T04:35:08;36.10;;;12.63;;
65234;SDS011;51820;48.374;10.930;2022-12-18T04:37:41;32.40;;;12.70;;
65234;SDS011;51820;48.374;10.930;2022-12-18T04:40:10;30.45;;;11.23;;
65234;SDS011;51820;48.374;10.930;2022-12-18T04:42:42;33.10;;;12.23;;
65234;SDS011;51820;48.374;10.930;2022-12-18T04:45:13;33.03;;;12.73;;
65234;SDS011;51820;48.374;10.930;2022-12-18T04:47:41;32.08;;;11.82;;
65234;SDS011;51820;48.374;10.930;2022-12-18T04:50:09;35.70;;;12.23;;
65234;SDS011;51820;48.374;10.930;2022-12-18T04:52:38;30.55;;;10.95;;
65234;SDS011;51820;48.374;10.930;2022-12-18T04:55:07;30.30;;;10.73;;
65234;SDS011;51820;48.374;10.930;2022-12-18T04:57:35;32.88;;;11.48;;
65234;SDS011;51820;48.374;10.930;2022-12-18T05:00:04;34.40;;;12.38;;
65234;SDS011;51820;48.374;10.930;2022-12-18T05:05:34;36.22;;;11.68;;
65234;SDS011;51820;48.374;10.930;2022-12-18T05:08:02;31.70;;;11.93;;
65234;SDS011;51820;48.374;10.930;2022-12-18T05:10:30;38.50;;;12.25;;
65234;SDS011;51820;48.374;10.930;2022-12-18T05:13:03;37.10;;;11.93;;
65234;SDS011;51820;48.374;10.930;2022-12-18T05:15:32;35.50;;;12.65;;
65234;SDS011;51820;48.374;10.930;2022-12-18T05:18:02;37.15;;;12.30;;
65234;SDS011;51820;48.374;10.930;2022-12-18T05:20:31;33.17;;;11.97;;
65234;SDS011;51820;48.374;10.930;2022-12-18T05:22:59;31.67;;;11.80;;
65234;SDS011;51820;48.374;10.930;2022-12-18T05:25:28;28.85;;;10.35;;
65234;SDS011;51820;48.374;10.930;2022-12-18T05:27:56;33.28;;;11.48;;
65234;SDS011;51820;48.374;10.930;2022-12-18T05:30:25;29.45;;;10.65;;
65234;SDS011;51820;48.374;10.930;2022-12-18T05:32:54;30.63;;;10.90;;
65234;SDS011;51820;48.374;10.930;2022-12-18T05:35:23;30.88;;;11.57;;
65234;SDS011;51820;48.374;10.930;2022-12-18T05:37:52;30.45;;;10.80;;
65234;SDS011;51820;48.374;10.930;2022-12-18T05:40:21;32.15;;;11.50;;
65234;SDS011;51820;48.374;10.930;2022-12-18T05:42:49;31.80;;;11.88;;
65234;SDS011;51820;48.374;10.930;2022-12-18T05:45:18;32.73;;;12.10;;
65234;SDS011;51820;48.374;10.930;2022-12-18T05:47:46;31.25;;;11.27;;
65234;SDS011;51820;48.374;10.930;2022-12-18T05:50:15;30.35;;;11.38;;
65234;SDS011;51820;48.374;10.930;2022-12-18T05:52:44;34.45;;;12.38;;
65234;SDS011;51820;48.374;10.930;2022-12-18T05:55:13;35.83;;;12.38;;
65234;SDS011;51820;48.374;10.930;2022-12-18T05:57:41;37.67;;;11.67;;
65234;SDS011;51820;48.374;10.930;2022-12-18T06:00:10;39.67;;;13.13;;
65234;SDS011;51820;48.374;10.930;2022-12-18T06:02:39;31.38;;;10.98;;
65234;SDS011;51820;48.374;10.930;2022-12-18T06:05:07;38.53;;;12.40;;
65234;SDS011;51820;48.374;10.930;2022-12-18T06:07:37;34.35;;;12.23;;
65234;SDS011;51820;48.374;10.930;2022-12-18T06:10:07;33.87;;;12.07;;
65234;SDS011;51820;48.374;10.930;2022-12-18T06:12:35;30.75;;;11.30;;
65234;SDS011;51820;48.374;10.930;2022-12-18T06:15:04;32.28;;;12.05;;
65234;SDS011;51820;48.374;10.930;2022-12-18T06:17:33;34.97;;;11.93;;
65234;SDS011;51820;48.374;10.930;2022-12-18T06:20:01;36.97;;;11.77;;
65234;SDS011;51820;48.374;10.930;2022-12-18T06:22:30;36.63;;;12.20;;
65234;SDS011;51820;48.374;10.930;2022-12-18T06:24:58;27.80;;;10.82;;
65234;SDS011;51820;48.374;10.930;2022-12-18T06:27:28;30.45;;;12.43;;
65234;SDS011;51820;48.374;10.930;2022-12-18T06:29:56;38.15;;;12.75;;
65234;SDS011;51820;48.374;10.930;2022-12-18T06:32:25;35.40;;;12.98;;
65234;SDS011;51820;48.374;10.930;2022-12-18T06:34:53;36.10;;;11.23;;
65234;SDS011;51820;48.374;10.930;2022-12-18T06:37:22;33.85;;;12.98;;
65234;SDS011;51820;48.374;10.930;2022-12-18T06:39:52;35.60;;;13.32;;
65234;SDS011;51820;48.374;10.930;2022-12-18T06:42:22;40.60;;;12.90;;
65234;SDS011;51820;48.374;10.930;2022-12-18T06:44:51;33.22;;;13.32;;
65234;SDS011;51820;48.374;10.930;2022-12-18T06:47:19;36.93;;;11.37;;
65234;SDS011;51820;48.374;10.930;2022-12-18T06:49:48;37.15;;;13.13;;
65234;SDS011;51820;48.374;10.930;2022-12-18T06:52:16;37.55;;;12.77;;
65234;SDS011;51820;48.374;10.930;2022-12-18T06:54:45;32.60;;;12.00;;
65234;SDS011;51820;48.374;10.930;2022-12-18T06:57:13;33.42;;;11.38;;
65234;SDS011;51820;48.374;10.930;2022-12-18T06:59:41;31.60;;;12.37;;
65234;SDS011;51820;48.374;10.930;2022-12-18T07:02:12;30.67;;;11.63;;
65234;SDS011;51820;48.374;10.930;2022-12-18T07:04:41;37.50;;;11.68;;
65234;SDS011;51820;48.374;10.930;2022-12-18T07:07:09;32.45;;;10.02;;
65234;SDS011;51820;48.374;10.930;2022-12-18T07:09:38;30.80;;;10.73;;
65234;SDS011;51820;48.374;10.930;2022-12-18T07:12:06;31.10;;;11.23;;
65234;SDS011;51820;48.374;10.930;2022-12-18T07:14:35;29.95;;;11.35;;
65234;SDS011;51820;48.374;10.930;2022-12-18T07:17:03;28.33;;;10.43;;
65234;SDS011;51820;48.374;10.930;2022-12-18T07:19:33;25.15;;;9.13;;
65234;SDS011;51820;48.374;10.930;2022-12-18T07:22:02;27.67;;;9.65;;
65234;SDS011;51820;48.374;10.930;2022-12-18T07:24:32;35.07;;;10.73;;
65234;SDS011;51820;48.374;10.930;2022-12-18T07:27:01;35.72;;;11.68;;
65234;SDS011;51820;48.374;10.930;2022-12-18T07:29:30;33.13;;;10.85;;
65234;SDS011;51820;48.374;10.930;2022-12-18T07:31:58;32.55;;;11.82;;
65234;SDS011;51820;48.374;10.930;2022-12-18T07:34:27;35.53;;;10.73;;
65234;SDS011;51820;48.374;10.930;2022-12-18T07:36:56;29.27;;;10.80;;
65234;SDS011;51820;48.374;10.930;2022-12-18T07:39:25;29.48;;;11.23;;
65234;SDS011;51820;48.374;10.930;2022-12-18T07:41:53;32.55;;;11.50;;
65234;SDS011;51820;48.374;10.930;2022-12-18T07:44:39;31.75;;;11.30;;
65234;SDS011;51820;48.374;10.930;2022-12-18T07:47:07;29.98;;;10.63;;
65234;SDS011;51820;48.374;10.930;2022-12-18T07:49:37;24.37;;;9.70;;
65234;SDS011;51820;48.374;10.930;2022-12-18T07:52:07;29.48;;;11.20;;
65234;SDS011;51820;48.374;10.930;2022-12-18T07:54:38;26.55;;;9.77;;
65234;SDS011;51820;48.374;10.930;2022-12-18T07:57:09;32.97;;;11.00;;
65234;SDS011;51820;48.374;10.930;2022-12-18T07:59:58;29.00;;;10.10;;
65234;SDS011;51820;48.374;10.930;2022-12-18T08:02:26;29.37;;;10.60;;
65234;SDS011;51820;48.374;10.930;2022-12-18T08:04:55;30.95;;;9.05;;
65234;SDS011;51820;48.374;10.930;2022-12-18T08:07:24;30.60;;;10.90;;
65234;SDS011;51820;48.374;10.930;2022-12-18T08:09:52;29.30;;;10.35;;
65234;SDS011;51820;48.374;10.930;2022-12-18T08:12:21;33.08;;;10.30;;
65234;SDS011;51820;48.374;10.930;2022-12-18T08:14:49;27.67;;;9.50;;
65234;SDS011;51820;48.374;10.930;2022-12-18T08:17:18;27.20;;;9.20;;
65234;SDS011;51820;48.374;10.930;2022-12-18T08:19:47;26.92;;;10.10;;
65234;SDS011;51820;48.374;10.930;2022-12-18T08:22:15;27.85;;;9.75;;
65234;SDS011;51820;48.374;10.930;2022-12-18T08:24:45;31.35;;;11.38;;
65234;SDS011;51820;48.374;10.930;2022-12-18T08:27:14;31.50;;;11.23;;
65234;SDS011;51820;48.374;10.930;2022-12-18T08:29:57;33.97;;;11.18;;
65234;SDS011;51820;48.374;10.930;2022-12-18T08:32:26;31.00;;;10.98;;
65234;SDS011;51820;48.374;10.930;2022-12-18T08:34:55;31.08;;;10.52;;
65234;SDS011;51820;48.374;10.930;2022-12-18T08:37:23;35.88;;;11.13;;
65234;SDS011;51820;48.374;10.930;2022-12-18T08:39:53;29.80;;;10.83;;
65234;SDS011;51820;48.374;10.930;2022-12-18T08:42:21;31.70;;;11.07;;
65234;SDS011;51820;48.374;10.930;2022-12-18T08:45:08;30.73;;;11.07;;
65234;SDS011;51820;48.374;10.930;2022-12-18T08:47:36;31.15;;;10.63;;
65234;SDS011;51820;48.374;10.930;2022-12-18T08:50:05;28.83;;;10.25;;
65234;SDS011;51820;48.374;10.930;2022-12-18T08:52:33;32.73;;;11.03;;
65234;SDS011;51820;48.374;10.930;2022-12-18T08:55:03;34.72;;;11.85;;
65234;SDS011;51820;48.374;10.930;2022-12-18T08:57:32;36.35;;;12.57;;
65234;SDS011;51820;48.374;10.930;2022-12-18T09:00:00;35.80;;;12.80;;
65234;SDS011;51820;48.374;10.930;2022-12-18T09:02:29;33.85;;;11.13;;
65234;SDS011;51820;48.374;10.930;2022-12-18T09:04:57;31.83;;;12.33;;
65234;SDS011;51820;48.374;10.930;2022-12-18T09:07:26;28.73;;;11.75;;
65234;SDS011;51820;48.374;10.930;2022-12-18T09:09:54;33.97;;;10.90;;
65234;SDS011;51820;48.374;10.930;2022-12-18T09:12:24;31.38;;;11.45;;
65234;SDS011;51820;48.374;10.930;2022-12-18T09:14:52;34.90;;;11.88;;
65234;SDS011;51820;48.374;10.930;2022-12-18T09:17:21;34.97;;;12.03;;
65234;SDS011;51820;48.374;10.930;2022-12-18T09:19:49;34.40;;;12.68;;
65234;SDS011;51820;48.374;10.930;2022-12-18T09:22:18;34.28;;;12.55;;
65234;SDS011;51820;48.374;10.930;2022-12-18T09:24:46;33.90;;;12.27;;
65234;SDS011;51820;48.374;10.930;2022-12-18T09:27:16;33.05;;;11.68;;
65234;SDS011;51820;48.374;10.930;2022-12-18T09:29:46;32.23;;;11.17;;
65234;SDS011;51820;48.374;10.930;2022-12-18T09:32:15;32.95;;;11.02;;
65234;SDS011;51820;48.374;10.930;2022-12-18T09:34:48;33.22;;;12.57;;
65234;SDS011;51820;48.374;10.930;2022-12-18T09:37:16;39.63;;;12.65;;
65234;SDS011;51820;48.374;10.930;2022-12-18T09:39:44;33.03;;;12.43;;
65234;SDS011;51820;48.374;10.930;2022-12-18T09:42:15;34.17;;;12.60;;
65234;SDS011;51820;48.374;10.930;2022-12-18T09:44:49;35.45;;;12.55;;
65234;SDS011;51820;48.374;10.930;2022-12-18T09:47:18;35.17;;;13.10;;
65234;SDS011;51820;48.374;10.930;2022-12-18T09:49:50;43.65;;;13.07;;
65234;SDS011;51820;48.374;10.930;2022-12-18T09:52:21;39.58;;;12.82;;
65234;SDS011;51820;48.374;10.930;2022-12-18T09:54:55;34.17;;;12.43;;
65234;SDS011;51820;48.374;10.930;2022-12-18T09:57:28;41.15;;;12.73;;
65234;SDS011;51820;48.374;10.930;2022-12-18T10:00:04;34.30;;;12.73;;
65234;SDS011;51820;48.374;10.930;2022-12-18T10:02:40;37.22;;;12.98;;
65234;SDS011;51820;48.374;10.930;2022-12-18T10:05:12;32.67;;;11.98;;
65234;SDS011;51820;48.374;10.930;2022-12-18T10:07:47;34.33;;;11.77;;
65234;SDS011;51820;48.374;10.930;2022-12-18T10:10:33;31.58;;;12.52;;
65234;SDS011;51820;48.374;10.930;2022-12-18T10:13:09;30.20;;;11.45;;
65234;SDS011;51820;48.374;10.930;2022-12-18T10:15:57;30.13;;;10.52;;
65234;SDS011;51820;48.374;10.930;2022-12-18T10:18:53;29.08;;;12.18;;
65234;SDS011;51820;48.374;10.930;2022-12-18T10:21:28;35.33;;;12.53;;
65234;SDS011;51820;48.374;10.930;2022-12-18T10:24:03;40.45;;;13.20;;
65234;SDS011;51820;48.374;10.930;2022-12-18T10:26:42;37.17;;;11.68;;
65234;SDS011;51820;48.374;10.930;2022-12-18T10:29:12;35.33;;;11.23;;
65234;SDS011;51820;48.374;10.930;2022-12-18T10:31:43;38.15;;;12.75;;
65234;SDS011;51820;48.374;10.930;2022-12-18T10:34:11;27.90;;;10.30;;
65234;SDS011;51820;48.374;10.930;2022-12-18T10:36:40;29.08;;;10.80;;
65234;SDS011;51820;48.374;10.930;2022-12-18T10:39:16;31.20;;;10.95;;
65234;SDS011;51820;48.374;10.930;2022-12-18T10:41:46;34.22;;;12.52;;
65234;SDS011;51820;48.374;10.930;2022-12-18T10:44:19;26.23;;;9.93;;
65234;SDS011;51820;48.374;10.930;2022-12-18T10:46:50;30.27;;;11.47;;
65234;SDS011;51820;48.374;10.930;2022-12-18T10:49:25;26.33;;;10.75;;
65234;SDS011;51820;48.374;10.930;2022-12-18T10:52:05;28.05;;;11.50;;
65234;SDS011;51820;48.374;10.930;2022-12-18T10:54:45;36.13;;;12.98;;
65234;SDS011;51820;48.374;10.930;2022-12-18T10:57:17;31.60;;;12.23;;
65234;SDS011;51820;48.374;10.930;2022-12-18T10:59:58;32.33;;;12.07;;
65234;SDS011;51820;48.374;10.930;2022-12-18T11:02:33;31.20;;;11.48;;
65234;SDS011;51820;48.374;10.930;2022-12-18T11:07:56;35.75;;;11.65;;
65234;SDS011;51820;48.374;10.930;2022-12-18T11:10:26;31.95;;;11.75;;
65234;SDS011;51820;48.374;10.930;2022-12-18T11:13:10;37.87;;;12.67;;
65234;SDS011;51820;48.374;10.930;2022-12-18T11:15:44;30.13;;;11.18;;
65234;SDS011;51820;48.374;10.930;2022-12-18T11:18:18;36.08;;;11.63;;
65234;SDS011;51820;48.374;10.930;2022-12-18T11:20:51;35.30;;;12.05;;
65234;SDS011;51820;48.374;10.930;2022-12-18T11:23:24;33.97;;;11.90;;
65234;SDS011;51820;48.374;10.930;2022-12-18T11:25:54;30.17;;;11.47;;
65234;SDS011;51820;48.374;10.930;2022-12-18T11:28:29;34.22;;;13.35;;
65234;SDS011;51820;48.374;10.930;2022-12-18T11:31:18;34.83;;;12.43;;
65234;SDS011;51820;48.374;10.930;2022-12-18T11:33:57;32.53;;;12.55;;
65234;SDS011;51820;48.374;10.930;2022-12-18T11:36:53;30.20;;;11.35;;
65234;SDS011;51820;48.374;10.930;2022-12-18T11:39:24;31.40;;;11.77;;
65234;SDS011;51820;48.374;10.930;2022-12-18T11:42:02;35.65;;;12.02;;
65234;SDS011;51820;48.374;10.930;2022-12-18T11:44:42;29.95;;;10.63;;
65234;SDS011;51820;48.374;10.930;2022-12-18T11:47:16;37.63;;;13.13;;
65234;SDS011;51820;48.374;10.930;2022-12-18T11:49:54;30.92;;;12.02;;
65234;SDS011;51820;48.374;10.930;2022-12-18T11:52:24;29.87;;;12.00;;
65234;SDS011;51820;48.374;10.930;2022-12-18T11:54:58;35.17;;;12.07;;
65234;SDS011;51820;48.374;10.930;2022-12-18T11:57:31;35.60;;;12.70;;
65234;SDS011;51820;48.374;10.930;2022-12-18T12:00:10;34.33;;;12.52;;
65234;SDS011;51820;48.374;10.930;2022-12-18T12:02:53;29.88;;;11.32;;
65234;SDS011;51820;48.374;10.930;2022-12-18T12:05:41;28.27;;;11.17;;
65234;SDS011;51820;48.374;10.930;2022-12-18T12:08:21;48.53;;;15.30;;
65234;SDS011;51820;48.374;10.930;2022-12-18T12:10:58;37.47;;;13.13;;
65234;SDS011;51820;48.374;10.930;2022-12-18T12:13:37;34.10;;;11.90;;
65234;SDS011;51820;48.374;10.930;2022-12-18T12:16:16;35.50;;;12.20;;
65234;SDS011;51820;48.374;10.930;2022-12-18T12:18:51;35.13;;;11.10;;
65234;SDS011;51820;48.374;10.930;2022-12-18T12:21:33;30.75;;;11.32;;
65234;SDS011;51820;48.374;10.930;2022-12-18T12:24:10;31.55;;;11.32;;
65234;SDS011;51820;48.374;10.930;2022-12-18T12:26:49;32.03;;;10.55;;
65234;SDS011;51820;48.374;10.930;2022-12-18T12:29:58;30.50;;;10.70;;
65234;SDS011;51820;48.374;10.930;2022-12-18T12:33:08;32.70;;;11.87;;
65234;SDS011;51820;48.374;10.930;2022-12-18T12:36:08;29.90;;;10.43;;
65234;SDS011;51820;48.374;10.930;2022-12-18T12:38:50;31.65;;;10.43;;
65234;SDS011;51820;48.374;10.930;2022-12-18T12:41:22;34.28;;;12.70;;
65234;SDS011;51820;48.374;10.930;2022-12-18T12:44:13;34.17;;;11.43;;
65234;SDS011;51820;48.374;10.930;2022-12-18T12:46:46;31.80;;;11.43;;
65234;SDS011;51820;48.374;10.930;2022-12-18T12:49:18;30.88;;;12.10;;
65234;SDS011;51820;48.374;10.930;2022-12-18T12:52:10;31.92;;;12.10;;
65234;SDS011;51820;48.374;10.930;2022-12-18T12:54:44;32.40;;;12.13;;
65234;SDS011;51820;48.374;10.930;2022-12-18T12:57:17;32.22;;;12.50;;
65234;SDS011;51820;48.374;10.930;2022-12-18T12:59:51;32.67;;;10.93;;
65234;SDS011;51820;48.374;10.930;2022-12-18T13:02:30;28.92;;;10.68;;
65234;SDS011;51820;48.374;10.930;2022-12-18T13:05:07;28.25;;;10.85;;
65234;SDS011;51820;48.374;10.930;2022-12-18T13:07:45;33.03;;;10.93;;
65234;SDS011;51820;48.374;10.930;2022-12-18T13:10:26;34.83;;;12.43;;
65234;SDS011;51820;48.374;10.930;2022-12-18T13:13:01;31.23;;;11.37;;
65234;SDS011;51820;48.374;10.930;2022-12-18T13:15:33;30.65;;;10.75;;
65234;SDS011;51820;48.374;10.930;2022-12-18T13:18:13;31.48;;;10.30;;
65234;SDS011;51820;48.374;10.930;2022-12-18T13:20:48;34.17;;;12.23;;
65234;SDS011;51820;48.374;10.930;2022-12-18T13:23:33;29.48;;;10.80;;
65234;SDS011;51820;48.374;10.930;2022-12-18T13:29:01;27.67;;;10.07;;
65234;SDS011;51820;48.374;10.930;2022-12-18T13:34:35;27.20;;;9.85;;
65234;SDS011;51820;48.374;10.930;2022-12-18T13:46:17;27.50;;;9.82;;
65234;SDS011;51820;48.374;10.930;2022-12-18T13:49:00;24.67;;;9.40;;
65234;SDS011;51820;48.374;10.930;2022-12-18T13:51:31;41.55;;;13.98;;
65234;SDS011;51820;48.374;10.930;2022-12-18T13:54:02;60.57;;;21.23;;
65234;SDS011;51820;48.374;10.930;2022-12-18T13:56:43;38.35;;;14.18;;
65234;SDS011;51820;48.374;10.930;2022-12-18T13:59:16;31.95;;;11.10;;
65234;SDS011;51820;48.374;10.930;2022-12-18T14:01:51;31.75;;;10.88;;
65234;SDS011;51820;48.374;10.930;2022-12-18T14:04:23;28.65;;;10.20;;
65234;SDS011;51820;48.374;10.930;2022-12-18T14:06:55;27.20;;;9.70;;
65234;SDS011;51820;48.374;10.930;2022-12-18T14:09:27;29.20;;;10.68;;
65234;SDS011;51820;48.374;10.930;2022-12-18T14:12:03;31.40;;;10.98;;
65234;SDS011;51820;48.374;10.930;2022-12-18T14:14:52;28.58;;;9.93;;
65234;SDS011;51820;48.374;10.930;2022-12-18T14:17:21;32.13;;;11.13;;
65234;SDS011;51820;48.374;10.930;2022-12-18T14:19:51;32.60;;;10.97;;
65234;SDS011;51820;48.374;10.930;2022-12-18T14:22:20;31.40;;;11.23;;
65234;SDS011;51820;48.374;10.930;2022-12-18T14:25:05;29.33;;;11.13;;
65234;SDS011;51820;48.374;10.930;2022-12-18T14:27:42;33.58;;;10.98;;
65234;SDS011;51820;48.374;10.930;2022-12-18T14:33:10;32.40;;;12.40;;
65234;SDS011;51820;48.374;10.930;2022-12-18T14:35:51;28.63;;;11.13;;
65234;SDS011;51820;48.374;10.930;2022-12-18T14:38:23;25.25;;;9.75;;
65234;SDS011;51820;48.374;10.930;2022-12-18T14:40:59;30.02;;;11.00;;
65234;SDS011;51820;48.374;10.930;2022-12-18T14:43:31;31.60;;;11.40;;
65234;SDS011;51820;48.374;10.930;2022-12-18T14:46:05;30.10;;;11.13;;
65234;SDS011;51820;48.374;10.930;2022-12-18T14:48:56;32.22;;;12.10;;
65234;SDS011;51820;48.374;10.930;2022-12-18T14:51:25;29.13;;;10.70;;
65234;SDS011;51820;48.374;10.930;2022-12-18T14:53:56;28.50;;;9.85;;
65234;SDS011;51820;48.374;10.930;2022-12-18T14:56:27;28.25;;;9.75;;
65234;SDS011;51820;48.374;10.930;2022-12-18T20:39:13;53.67;;;18.75;;
65234;SDS011;51820;48.374;10.930;2022-12-18T20:41:45;49.87;;;15.90;;
65234;SDS011;51820;48.374;10.930;2022-12-18T20:44:16;43.20;;;16.33;;
65234;SDS011;51820;48.374;10.930;2022-12-18T20:46:49;46.10;;;15.38;;
65234;SDS011;51820;48.374;10.930;2022-12-18T20:49:19;46.58;;;15.40;;
65234;SDS011;51820;48.374;10.930;2022-12-18T20:51:52;50.45;;;17.15;;